createdAt,value
2022-10-18T00:00:20.043Z,44.83
2022-10-18T00:00:52.156Z,44.40
2022-10-18T00:01:24.312Z,44.64
2022-10-18T00:01:59.696Z,44.78
2022-10-18T00:02:31.925Z,44.83
2022-10-18T00:03:04.260Z,44.74
2022-10-18T00:03:39.768Z,44.74
2022-10-18T00:04:11.899Z,44.52
2022-10-18T00:04:43.987Z,44.66
2022-10-18T00:05:18.784Z,44.68
2022-10-18T00:05:51.203Z,44.96
2022-10-18T00:06:23.329Z,44.88
2022-10-18T00:06:57.965Z,44.54
2022-10-18T00:07:30.248Z,44.51
2022-10-18T00:08:03.120Z,44.78
2022-10-18T00:08:38.165Z,44.55
2022-10-18T00:09:10.287Z,44.99
2022-10-18T00:09:44.998Z,44.59
2022-10-18T00:10:20.014Z,44.59
2022-10-18T00:10:52.173Z,44.64
2022-10-18T00:11:24.590Z,44.76
2022-10-18T00:11:59.902Z,45.18
2022-10-18T00:12:33.441Z,45.24
2022-10-18T00:13:05.541Z,44.66
2022-10-18T00:13:40.516Z,44.99
2022-10-18T00:14:12.734Z,45.28
2022-10-18T00:14:44.839Z,45.11
2022-10-18T00:15:19.871Z,45.18
2022-10-18T00:15:53.935Z,45.29
2022-10-18T00:16:26.013Z,45.05
2022-10-18T00:16:58.407Z,45.26
2022-10-18T00:17:33.229Z,45.58
2022-10-18T00:18:05.495Z,45.43
2022-10-18T00:18:37.682Z,45.25
2022-10-18T00:19:12.356Z,45.39
2022-10-18T00:19:44.535Z,45.54
2022-10-18T00:20:16.954Z,45.62
2022-10-18T00:21:00.697Z,45.16
2022-10-18T00:21:32.858Z,45.23
2022-10-18T00:22:05.065Z,45.40
2022-10-18T00:22:41.130Z,45.70
2022-10-18T00:23:13.248Z,45.47
2022-10-18T00:23:47.746Z,45.33
2022-10-18T00:24:22.562Z,45.29
2022-10-18T00:24:57.334Z,45.57
2022-10-18T00:25:29.483Z,45.63
2022-10-18T00:26:10.777Z,45.75
2022-10-18T00:26:42.990Z,45.35
2022-10-18T00:27:15.271Z,45.50
2022-10-18T00:27:50.021Z,45.77
2022-10-18T00:28:22.098Z,45.69
2022-10-18T00:28:56.580Z,45.49
2022-10-18T00:29:31.285Z,45.40
2022-10-18T00:30:03.870Z,45.42
2022-10-18T00:30:36.095Z,45.52
2022-10-18T00:31:16.716Z,45.44
2022-10-18T00:31:51.443Z,45.61
2022-10-18T00:32:23.860Z,45.88
2022-10-18T00:32:55.991Z,45.87
2022-10-18T00:33:30.634Z,45.39
2022-10-18T00:34:05.303Z,45.61
2022-10-18T00:34:41.022Z,45.61
2022-10-18T00:35:13.163Z,45.79
2022-10-18T00:35:45.267Z,45.45
2022-10-18T00:36:20.363Z,45.67
2022-10-18T00:36:52.448Z,45.91
2022-10-18T00:37:24.653Z,45.88
2022-10-18T00:37:59.302Z,45.76
2022-10-18T00:38:32.519Z,45.92
2022-10-18T00:39:06.238Z,45.56
2022-10-18T00:39:41.240Z,45.87
2022-10-18T00:40:16.035Z,45.78
2022-10-18T00:40:48.126Z,45.60
2022-10-18T00:41:25.967Z,45.83
2022-10-18T00:41:58.246Z,45.69
2022-10-18T00:42:35.096Z,45.82
2022-10-18T00:43:17.617Z,45.57
2022-10-18T00:43:55.226Z,46.15
2022-10-18T00:44:57.409Z,46.12
2022-10-18T00:45:32.321Z,46.11
2022-10-18T00:46:04.654Z,46.11
2022-10-18T00:46:38.533Z,46.29
2022-10-18T00:47:13.370Z,46.54
2022-10-18T00:47:52.040Z,46.50
2022-10-18T00:48:24.373Z,46.76
2022-10-18T00:48:58.844Z,46.62
2022-10-18T00:49:36.837Z,46.64
2022-10-18T00:50:10.506Z,46.51
2022-10-18T00:50:43.302Z,46.74
2022-10-18T00:51:19.685Z,46.40
2022-10-18T00:51:59.287Z,46.65
2022-10-18T00:52:35.440Z,46.65
2022-10-18T00:53:15.816Z,46.78
2022-10-18T00:53:48.541Z,46.55
2022-10-18T00:54:21.556Z,46.98
2022-10-18T00:54:58.220Z,46.37
2022-10-18T00:55:34.440Z,46.49
2022-10-18T00:56:07.581Z,46.91
2022-10-18T00:56:44.863Z,46.56
2022-10-18T00:57:17.695Z,46.94
2022-10-18T00:57:50.519Z,46.87
2022-10-18T00:58:25.230Z,46.53
2022-10-18T00:58:57.896Z,46.50
2022-10-18T00:59:30.540Z,46.38
2022-10-18T01:00:09.704Z,46.25
2022-10-18T01:00:41.993Z,46.34
2022-10-18T01:01:14.121Z,46.46
2022-10-18T01:01:49.142Z,46.33
2022-10-18T01:02:22.113Z,46.68
2022-10-18T01:02:56.815Z,46.54
2022-10-18T01:03:28.943Z,46.25
2022-10-18T01:04:01.470Z,46.60
2022-10-18T01:04:36.785Z,46.32
2022-10-18T01:05:11.626Z,46.24
2022-10-18T01:05:50.448Z,46.37
2022-10-18T01:06:23.648Z,46.53
2022-10-18T01:07:01.373Z,46.72
2022-10-18T01:08:00.768Z,46.79
2022-10-18T01:08:57.057Z,46.73
2022-10-18T01:09:38.199Z,46.76
2022-10-18T01:10:27.923Z,46.71
2022-10-18T01:11:23.465Z,46.76
2022-10-18T01:12:09.333Z,46.67
2022-10-18T01:12:56.535Z,46.81
2022-10-18T01:13:39.735Z,46.88
2022-10-18T01:14:29.260Z,46.87
2022-10-18T01:15:10.742Z,46.50
2022-10-18T01:15:54.522Z,46.96
2022-10-18T01:16:36.146Z,46.77
2022-10-18T01:17:15.501Z,46.78
2022-10-18T01:17:56.351Z,46.99
2022-10-18T01:18:37.514Z,46.76
2022-10-18T01:19:30.558Z,46.49
2022-10-18T01:20:36.996Z,46.40
2022-10-18T01:21:21.472Z,46.79
2022-10-18T01:22:00.922Z,46.48
2022-10-18T01:22:40.722Z,46.60
2022-10-18T01:23:19.603Z,46.83
2022-10-18T01:24:15.699Z,46.59
2022-10-18T01:25:04.872Z,46.72
2022-10-18T01:25:47.334Z,46.66
2022-10-18T01:26:41.818Z,46.91
2022-10-18T01:27:29.067Z,46.75
2022-10-18T01:28:12.203Z,46.57
2022-10-18T01:28:58.382Z,46.60
2022-10-18T01:29:38.477Z,46.59
2022-10-18T01:30:45.885Z,46.80
2022-10-18T01:31:22.454Z,46.93
2022-10-18T01:31:59.704Z,46.75
2022-10-18T01:32:40.393Z,47.10
2022-10-18T01:33:21.398Z,46.79
2022-10-18T01:34:58.330Z,47.10
2022-10-18T01:35:36.455Z,47.42
2022-10-18T01:36:17.715Z,47.57
2022-10-18T01:36:53.568Z,47.03
2022-10-18T01:37:28.105Z,47.15
2022-10-18T01:38:08.117Z,47.54
2022-10-18T01:38:42.752Z,47.50
2022-10-18T01:39:24.011Z,47.36
2022-10-18T01:39:58.867Z,47.22
2022-10-18T01:40:32.197Z,47.45
2022-10-18T01:41:13.284Z,47.31
2022-10-18T01:41:51.425Z,47.11
2022-10-18T01:42:27.478Z,47.45
2022-10-18T01:43:01.318Z,47.57
2022-10-18T01:43:39.120Z,47.37
2022-10-18T01:44:16.169Z,47.09
2022-10-18T01:44:51.109Z,47.33
2022-10-18T01:45:27.578Z,47.38
2022-10-18T01:46:04.472Z,47.14
2022-10-18T01:46:40.047Z,47.25
2022-10-18T01:47:16.882Z,47.17
2022-10-18T01:47:50.551Z,47.48
2022-10-18T01:48:23.810Z,47.24
2022-10-18T01:48:59.732Z,47.17
2022-10-18T01:49:33.505Z,46.97
2022-10-18T01:50:07.379Z,46.94
2022-10-18T01:50:42.191Z,47.12
2022-10-18T01:51:14.264Z,47.04
2022-10-18T01:51:46.411Z,47.08
2022-10-18T01:52:21.074Z,46.79
2022-10-18T01:52:53.187Z,46.81
2022-10-18T01:53:29.566Z,46.80
2022-10-18T01:54:04.607Z,46.42
2022-10-18T01:54:39.301Z,46.67
2022-10-18T01:55:11.716Z,46.89
2022-10-18T01:55:52.299Z,46.64
2022-10-18T01:56:32.759Z,46.75
2022-10-18T01:57:12.704Z,46.60
2022-10-18T01:57:57.077Z,46.78
2022-10-18T01:58:37.075Z,46.26
2022-10-18T01:59:24.440Z,46.52
2022-10-18T02:00:04.607Z,46.54
2022-10-18T02:00:44.476Z,46.46
2022-10-18T02:01:29.928Z,46.76
2022-10-18T02:02:12.291Z,46.52
2022-10-18T02:02:47.996Z,46.47
2022-10-18T02:03:24.167Z,46.41
2022-10-18T02:04:07.407Z,46.49
2022-10-18T02:04:46.146Z,46.71
2022-10-18T02:05:24.823Z,46.47
2022-10-18T02:06:05.396Z,46.51
2022-10-18T02:06:43.543Z,46.40
2022-10-18T02:07:27.983Z,45.90
2022-10-18T02:08:22.846Z,46.38
2022-10-18T02:09:01.085Z,46.08
2022-10-18T02:09:39.585Z,46.32
2022-10-18T02:10:19.814Z,46.35
2022-10-18T02:10:55.949Z,46.16
2022-10-18T02:11:30.770Z,46.35
2022-10-18T02:12:06.802Z,46.10
2022-10-18T02:12:42.819Z,46.36
2022-10-18T02:13:18.038Z,46.08
2022-10-18T02:13:56.765Z,45.85
2022-10-18T02:14:30.978Z,46.14
2022-10-18T02:15:07.594Z,45.82
2022-10-18T02:15:45.443Z,45.85
2022-10-18T02:16:23.764Z,46.07
2022-10-18T02:16:59.138Z,46.00
2022-10-18T02:17:34.931Z,45.82
2022-10-18T02:18:16.728Z,45.78
2022-10-18T02:18:55.702Z,46.21
2022-10-18T02:19:34.302Z,45.99
2022-10-18T02:20:09.221Z,45.77
2022-10-18T02:20:42.301Z,45.90
2022-10-18T02:21:20.903Z,46.13
2022-10-18T02:21:54.563Z,46.00
2022-10-18T02:22:32.212Z,45.87
2022-10-18T02:23:09.919Z,46.10
2022-10-18T02:23:45.096Z,46.14
2022-10-18T02:24:18.745Z,45.86
2022-10-18T02:24:57.759Z,45.72
2022-10-18T02:25:34.005Z,45.87
2022-10-18T02:26:07.003Z,45.83
2022-10-18T02:26:42.320Z,45.87
2022-10-18T02:27:14.731Z,45.91
2022-10-18T02:27:47.242Z,46.05
2022-10-18T02:28:22.200Z,45.65
2022-10-18T02:28:54.453Z,45.54
2022-10-18T02:29:26.746Z,45.80
2022-10-18T02:30:01.915Z,45.75
2022-10-18T02:30:41.322Z,45.39
2022-10-18T02:31:19.572Z,45.64
2022-10-18T02:32:04.284Z,45.51
2022-10-18T02:32:41.285Z,45.91
2022-10-18T02:33:18.129Z,45.56
2022-10-18T02:33:56.635Z,45.54
2022-10-18T02:34:35.532Z,45.60
2022-10-18T02:35:16.559Z,45.74
2022-10-18T02:35:56.882Z,45.77
2022-10-18T02:36:33.683Z,45.87
2022-10-18T02:37:08.503Z,45.50
2022-10-18T02:37:42.212Z,45.73
2022-10-18T02:38:16.431Z,45.54
2022-10-18T02:38:56.270Z,45.74
2022-10-18T02:39:31.439Z,45.37
2022-10-18T02:40:05.393Z,45.63
2022-10-18T02:40:40.066Z,45.68
2022-10-18T02:41:12.412Z,45.76
2022-10-18T02:41:44.694Z,45.66
2022-10-18T02:42:19.428Z,45.57
2022-10-18T02:42:55.972Z,45.89
2022-10-18T02:43:28.190Z,45.49
2022-10-18T02:44:02.937Z,45.50
2022-10-18T02:44:35.302Z,45.64
2022-10-18T02:45:08.103Z,45.51
2022-10-18T02:45:43.050Z,45.77
2022-10-18T02:46:15.224Z,45.59
2022-10-18T02:46:48.238Z,45.48
2022-10-18T02:47:25.527Z,45.61
2022-10-18T02:47:57.689Z,45.92
2022-10-18T02:48:29.859Z,45.66
2022-10-18T02:49:04.561Z,45.52
2022-10-18T02:49:36.683Z,45.90
2022-10-18T02:50:09.727Z,45.73
2022-10-18T02:50:44.397Z,45.88
2022-10-18T02:51:17.029Z,45.71
2022-10-18T02:51:49.268Z,45.89
2022-10-18T02:52:23.998Z,45.54
2022-10-18T02:52:56.139Z,45.61
2022-10-18T02:53:28.243Z,45.56
2022-10-18T02:54:02.947Z,45.33
2022-10-18T02:54:35.112Z,45.58
2022-10-18T02:55:08.297Z,45.30
2022-10-18T02:55:42.990Z,45.58
2022-10-18T02:56:15.089Z,45.55
2022-10-18T02:56:47.218Z,45.81
2022-10-18T02:57:22.080Z,45.61
2022-10-18T02:57:54.136Z,45.65
2022-10-18T02:58:26.263Z,45.75
2022-10-18T02:59:01.504Z,45.72
2022-10-18T02:59:33.575Z,45.41
2022-10-18T03:00:09.538Z,45.64
2022-10-18T03:00:41.661Z,45.40
2022-10-18T03:01:13.887Z,45.67
2022-10-18T03:01:48.634Z,45.27
2022-10-18T03:02:23.358Z,45.25
2022-10-18T03:02:58.003Z,45.38
2022-10-18T03:03:30.215Z,45.50
2022-10-18T03:04:02.888Z,45.55
2022-10-18T03:04:37.633Z,45.55
2022-10-18T03:05:09.744Z,45.25
2022-10-18T03:05:41.856Z,45.40
2022-10-18T03:06:16.527Z,45.52
2022-10-18T03:06:48.690Z,45.68
2022-10-18T03:07:20.870Z,45.42
2022-10-18T03:07:55.508Z,45.51
2022-10-18T03:08:27.622Z,45.22
2022-10-18T03:08:59.930Z,45.42
2022-10-18T03:09:34.596Z,45.60
2022-10-18T03:10:07.994Z,45.62
2022-10-18T03:10:40.064Z,45.67
2022-10-18T03:11:14.735Z,45.51
2022-10-18T03:11:46.838Z,45.46
2022-10-18T03:12:18.919Z,45.66
2022-10-18T03:12:53.597Z,45.36
2022-10-18T03:13:25.826Z,45.41
2022-10-18T03:13:57.930Z,45.76
2022-10-18T03:14:32.626Z,45.49
2022-10-18T03:15:05.827Z,45.48
2022-10-18T03:15:37.980Z,45.61
2022-10-18T03:16:12.801Z,45.48
2022-10-18T03:16:44.891Z,45.46
2022-10-18T03:17:16.997Z,45.47
2022-10-18T03:17:54.271Z,45.92
2022-10-18T03:18:26.942Z,45.68
2022-10-18T03:18:59.027Z,45.70
2022-10-18T03:19:33.835Z,45.42
2022-10-18T03:20:07.102Z,45.42
2022-10-18T03:20:39.193Z,45.66
2022-10-18T03:21:14.133Z,45.52
2022-10-18T03:21:46.236Z,45.74
2022-10-18T03:22:18.404Z,45.98
2022-10-18T03:22:53.129Z,45.55
2022-10-18T03:23:25.360Z,45.89
2022-10-18T03:23:58.742Z,46.08
2022-10-18T03:24:30.869Z,45.88
2022-10-18T03:25:05.704Z,45.75
2022-10-18T03:25:39.599Z,45.78
2022-10-18T03:26:13.749Z,45.64
2022-10-18T03:26:48.396Z,46.10
2022-10-18T03:27:20.569Z,46.12
2022-10-18T03:27:52.771Z,45.94
2022-10-18T03:28:27.564Z,45.83
2022-10-18T03:28:59.763Z,45.89
2022-10-18T03:29:31.895Z,46.15
2022-10-18T03:30:07.115Z,46.20
2022-10-18T03:30:39.201Z,45.88
2022-10-18T03:31:11.274Z,46.28
2022-10-18T03:31:46.060Z,46.28
2022-10-18T03:32:18.121Z,45.89
2022-10-18T03:32:54.323Z,46.36
2022-10-18T03:33:26.407Z,46.40
2022-10-18T03:34:01.070Z,46.42
2022-10-18T03:34:33.141Z,46.41
2022-10-18T03:35:06.111Z,46.06
2022-10-18T03:35:40.779Z,46.19
2022-10-18T03:36:15.507Z,46.25
2022-10-18T03:36:47.691Z,46.21
2022-10-18T03:37:19.769Z,46.38
2022-10-18T03:37:54.607Z,46.43
2022-10-18T03:38:27.067Z,46.19
2022-10-18T03:38:59.159Z,46.40
2022-10-18T03:39:33.855Z,46.51
2022-10-18T03:40:07.933Z,46.02
2022-10-18T03:40:40.080Z,46.19
2022-10-18T03:41:14.775Z,46.45
2022-10-18T03:41:46.888Z,46.37
2022-10-18T03:42:18.968Z,46.42
2022-10-18T03:42:53.644Z,46.38
2022-10-18T03:43:26.106Z,46.31
2022-10-18T03:43:58.233Z,46.23
2022-10-18T03:44:32.933Z,46.27
2022-10-18T03:45:06.058Z,46.46
2022-10-18T03:45:38.165Z,46.42
2022-10-18T03:46:12.894Z,46.23
2022-10-18T03:46:44.986Z,46.50
2022-10-18T03:47:17.093Z,46.21
2022-10-18T03:47:51.779Z,46.48
2022-10-18T03:48:26.542Z,46.25
2022-10-18T03:48:58.631Z,46.28
2022-10-18T03:50:06.061Z,46.26
2022-10-18T03:50:38.197Z,46.34
2022-10-18T03:51:13.011Z,46.22
2022-10-18T03:51:45.080Z,46.07
2022-10-18T03:52:17.233Z,46.30
2022-10-18T03:52:51.959Z,45.99
2022-10-18T03:53:24.151Z,45.92
2022-10-18T03:53:56.222Z,46.04
2022-10-18T03:54:30.923Z,45.98
2022-10-18T03:55:03.221Z,46.03
2022-10-18T03:55:35.325Z,46.14
2022-10-18T03:56:07.568Z,46.17
2022-10-18T03:56:42.290Z,46.34
2022-10-18T03:57:14.450Z,46.36
2022-10-18T03:57:46.593Z,46.42
2022-10-18T03:58:21.301Z,46.42
2022-10-18T03:58:53.435Z,46.28
2022-10-18T03:59:25.544Z,46.46
2022-10-18T04:00:00.196Z,46.12
2022-10-18T04:00:32.423Z,46.35
2022-10-18T04:01:04.545Z,46.54
2022-10-18T04:01:39.206Z,46.30
2022-10-18T04:02:11.338Z,45.99
2022-10-18T04:02:43.463Z,46.09
2022-10-18T04:03:18.331Z,46.06
2022-10-18T04:03:52.995Z,46.00
2022-10-18T04:04:25.080Z,45.92
2022-10-18T04:04:59.970Z,46.00
2022-10-18T04:05:32.065Z,46.23
2022-10-18T04:06:04.491Z,46.29
2022-10-18T04:06:39.163Z,46.16
2022-10-18T04:07:11.251Z,46.61
2022-10-18T04:07:43.346Z,46.47
2022-10-18T04:08:18.796Z,46.61
2022-10-18T04:08:50.970Z,46.35
2022-10-18T04:09:23.099Z,46.83
2022-10-18T04:09:57.768Z,46.81
2022-10-18T04:10:29.837Z,46.88
2022-10-18T04:11:05.599Z,46.74
2022-10-18T04:11:40.273Z,46.54
2022-10-18T04:12:12.373Z,46.69
2022-10-18T04:12:44.507Z,46.44
2022-10-18T04:13:19.158Z,46.78
2022-10-18T04:13:51.265Z,46.72
2022-10-18T04:14:23.398Z,46.58
2022-10-18T04:14:58.093Z,46.86
2022-10-18T04:15:30.197Z,46.78
2022-10-18T04:16:02.323Z,47.14
2022-10-18T04:17:29.252Z,47.33
2022-10-18T04:18:04.516Z,46.93
2022-10-18T04:18:36.588Z,46.86
2022-10-18T04:19:11.250Z,46.93
2022-10-18T04:19:46.049Z,47.27
2022-10-18T04:20:18.341Z,47.14
2022-10-18T04:20:50.423Z,47.24
2022-10-18T04:21:25.075Z,47.24
2022-10-18T04:21:57.162Z,47.07
2022-10-18T04:22:29.393Z,47.28
2022-10-18T04:23:04.065Z,47.57
2022-10-18T04:23:38.674Z,47.30
2022-10-18T04:24:11.177Z,47.52
2022-10-18T04:24:45.894Z,47.45
2022-10-18T04:25:18.315Z,47.22
2022-10-18T04:25:50.914Z,47.50
2022-10-18T04:26:25.673Z,47.57
2022-10-18T04:26:57.870Z,47.53
2022-10-18T04:27:30.268Z,47.65
2022-10-18T04:28:05.130Z,47.54
2022-10-18T04:28:40.164Z,47.54
2022-10-18T04:29:12.565Z,47.42
2022-10-18T04:29:47.350Z,47.43
2022-10-18T04:30:19.601Z,47.41
2022-10-18T04:30:52.192Z,47.59
2022-10-18T04:31:26.872Z,47.50
2022-10-18T04:31:58.958Z,47.25
2022-10-18T04:32:31.253Z,47.45
2022-10-18T04:33:06.001Z,47.28
2022-10-18T04:33:38.812Z,47.80
2022-10-18T04:34:13.779Z,47.64
2022-10-18T04:34:48.559Z,47.41
2022-10-18T04:35:24.502Z,47.53
2022-10-18T04:35:56.649Z,47.32
2022-10-18T04:36:31.363Z,47.34
2022-10-18T04:37:03.494Z,47.43
2022-10-18T04:37:36.040Z,47.20
2022-10-18T04:38:10.737Z,47.35
2022-10-18T04:38:42.810Z,47.49
2022-10-18T04:39:14.897Z,47.76
2022-10-18T04:39:52.723Z,47.56
2022-10-18T04:40:26.052Z,47.68
2022-10-18T04:40:58.104Z,47.85
2022-10-18T04:41:32.830Z,47.38
2022-10-18T04:42:05.086Z,47.84
2022-10-18T04:42:37.267Z,47.68
2022-10-18T04:43:12.142Z,47.58
2022-10-18T04:44:36.255Z,47.34
2022-10-18T04:45:12.016Z,47.73
2022-10-18T04:45:45.254Z,47.65
2022-10-18T04:46:17.416Z,47.43
2022-10-18T04:46:49.510Z,47.37
2022-10-18T04:47:24.177Z,47.44
2022-10-18T04:47:56.330Z,47.59
2022-10-18T04:48:28.426Z,47.84
2022-10-18T04:49:03.511Z,47.49
2022-10-18T04:49:38.206Z,47.63
2022-10-18T04:50:10.465Z,47.53
2022-10-18T04:50:45.165Z,47.34
2022-10-18T04:51:19.593Z,47.57
2022-10-18T04:51:51.664Z,47.50
2022-10-18T04:52:26.492Z,47.85
2022-10-18T04:52:58.750Z,47.39
2022-10-18T04:53:30.843Z,47.79
2022-10-18T04:54:05.749Z,47.51
2022-10-18T04:54:38.327Z,47.45
2022-10-18T04:55:10.840Z,47.77
2022-10-18T04:55:47.015Z,47.54
2022-10-18T04:56:19.600Z,47.42
2022-10-18T04:56:51.660Z,47.81
2022-10-18T04:57:26.350Z,47.64
2022-10-18T04:57:58.443Z,47.69
2022-10-18T04:58:30.580Z,47.95
2022-10-18T04:59:05.246Z,47.47
2022-10-18T04:59:37.549Z,47.52
2022-10-18T05:00:10.413Z,47.62
2022-10-18T05:00:45.386Z,48.01
2022-10-18T05:01:19.131Z,47.57
2022-10-18T05:01:51.583Z,47.63
2022-10-18T05:02:26.518Z,48.05
2022-10-18T05:02:59.016Z,47.92
2022-10-18T05:03:31.402Z,47.63
2022-10-18T05:04:06.264Z,47.92
2022-10-18T05:04:41.070Z,47.75
2022-10-18T05:05:14.288Z,47.96
2022-10-18T05:06:01.295Z,48.00
2022-10-18T05:06:34.431Z,48.05
2022-10-18T05:07:06.758Z,47.87
2022-10-18T05:07:41.505Z,47.93
2022-10-18T05:08:14.028Z,48.18
2022-10-18T05:08:46.210Z,48.45
2022-10-18T05:09:24.616Z,48.21
2022-10-18T05:09:56.754Z,48.03
2022-10-18T05:10:28.822Z,48.26
2022-10-18T05:11:03.971Z,48.04
2022-10-18T05:11:36.110Z,48.11
2022-10-18T05:12:08.247Z,48.58
2022-10-18T05:12:43.831Z,48.17
2022-10-18T05:13:16.127Z,48.13
2022-10-18T05:13:51.061Z,48.32
2022-10-18T05:14:23.256Z,48.58
2022-10-18T05:14:56.814Z,48.37
2022-10-18T05:15:31.653Z,48.61
2022-10-18T05:16:04.156Z,48.59
2022-10-18T05:16:36.557Z,48.39
2022-10-18T05:17:11.520Z,48.37
2022-10-18T05:17:43.595Z,48.33
2022-10-18T05:18:15.998Z,48.53
2022-10-18T05:18:50.791Z,48.49
2022-10-18T05:19:22.906Z,48.50
2022-10-18T05:19:57.770Z,48.69
2022-10-18T05:20:32.758Z,48.84
2022-10-18T05:21:05.343Z,48.42
2022-10-18T05:21:37.643Z,48.61
2022-10-18T05:22:12.351Z,48.95
2022-10-18T05:22:44.554Z,49.02
2022-10-18T05:23:16.690Z,48.56
2022-10-18T05:23:51.448Z,48.84
2022-10-18T05:24:26.943Z,48.60
2022-10-18T05:24:59.976Z,48.72
2022-10-18T05:25:34.656Z,49.00
2022-10-18T05:26:07.645Z,48.69
2022-10-18T05:26:39.889Z,49.25
2022-10-18T05:27:14.572Z,49.19
2022-10-18T05:27:46.674Z,49.05
2022-10-18T05:28:38.699Z,48.97
2022-10-18T05:29:13.722Z,48.99
2022-10-18T05:29:46.210Z,49.11
2022-10-18T05:30:18.535Z,49.06
2022-10-18T05:30:53.222Z,48.80
2022-10-18T05:31:25.363Z,48.95
2022-10-18T05:32:00.223Z,48.93
2022-10-18T05:32:32.622Z,49.01
2022-10-18T05:33:05.412Z,48.99
2022-10-18T05:33:40.389Z,49.40
2022-10-18T05:34:12.483Z,49.31
2022-10-18T05:34:44.707Z,49.07
2022-10-18T05:35:21.946Z,49.35
2022-10-18T05:35:54.185Z,49.05
2022-10-18T05:36:26.553Z,49.22
2022-10-18T05:37:02.189Z,48.99
2022-10-18T05:37:34.298Z,49.38
2022-10-18T05:38:06.569Z,48.87
2022-10-18T05:38:43.267Z,49.34
2022-10-18T05:39:15.634Z,49.02
2022-10-18T05:39:47.993Z,48.87
2022-10-18T05:40:22.724Z,49.09
2022-10-18T05:40:54.835Z,49.15
2022-10-18T05:41:26.980Z,48.75
2022-10-18T05:42:02.496Z,49.06
2022-10-18T05:42:34.720Z,49.06
2022-10-18T05:43:06.967Z,49.06
2022-10-18T05:43:41.896Z,48.82
2022-10-18T05:44:14.039Z,48.62
2022-10-18T05:44:49.123Z,48.57
2022-10-18T05:45:21.303Z,48.78
2022-10-18T05:45:53.373Z,48.77
2022-10-18T05:46:28.096Z,48.74
2022-10-18T05:47:00.195Z,48.76
2022-10-18T05:47:32.489Z,48.71
2022-10-18T05:48:09.425Z,48.92
2022-10-18T05:48:41.551Z,48.61
2022-10-18T05:49:14.173Z,48.88
2022-10-18T05:49:49.217Z,48.79
2022-10-18T05:50:23.883Z,48.68
2022-10-18T05:50:58.504Z,48.71
2022-10-18T05:51:33.478Z,48.61
2022-10-18T05:52:06.151Z,48.56
2022-10-18T05:52:38.327Z,48.56
2022-10-18T05:53:12.581Z,48.49
2022-10-18T05:53:59.372Z,48.81
2022-10-18T05:54:31.599Z,49.08
2022-10-18T05:55:04.268Z,48.93
2022-10-18T05:55:39.086Z,48.35
2022-10-18T05:56:12.141Z,48.64
2022-10-18T05:56:46.837Z,48.73
2022-10-18T05:57:18.948Z,48.60
2022-10-18T05:57:51.234Z,48.44
2022-10-18T05:58:25.896Z,48.37
2022-10-18T05:58:58.150Z,48.36
2022-10-18T05:59:30.298Z,48.53
2022-10-18T06:00:05.522Z,48.31
2022-10-18T06:00:43.959Z,48.10
2022-10-18T06:01:16.074Z,48.68
2022-10-18T06:01:50.736Z,48.29
2022-10-18T06:02:22.950Z,48.57
2022-10-18T06:02:59.433Z,48.62
2022-10-18T11:50:26.250Z,20.29
2022-10-18T11:51:04.497Z,20.28
2022-10-18T11:52:07.765Z,19.99
2022-10-18T11:52:59.095Z,20.22
2022-10-18T11:53:34.725Z,20.61
2022-10-18T11:54:29.539Z,20.36
2022-10-18T11:55:19.292Z,19.86
2022-10-18T11:56:04.914Z,19.47
2022-10-18T11:56:43.042Z,19.98
2022-10-18T11:57:34.706Z,19.71
2022-10-18T11:58:22.035Z,20.22
2022-10-18T11:59:21.377Z,20.31
2022-10-18T12:00:00.758Z,20.10
2022-10-18T12:00:49.328Z,20.35
2022-10-18T12:01:29.966Z,19.60
2022-10-18T12:02:32.285Z,19.74
2022-10-18T12:03:15.928Z,19.59
2022-10-18T12:04:03.233Z,19.78
2022-10-18T12:04:49.041Z,19.44
2022-10-18T12:05:40.785Z,19.57
2022-10-18T12:06:17.435Z,19.89
2022-10-18T12:06:57.507Z,19.36
2022-10-18T12:07:34.176Z,19.59
2022-10-18T12:08:12.634Z,19.58
2022-10-18T12:08:49.975Z,19.58
2022-10-18T12:09:26.627Z,19.49
2022-10-18T12:10:02.563Z,20.06
2022-10-18T12:10:52.753Z,19.59
2022-10-18T12:11:35.977Z,19.00
2022-10-18T12:12:12.795Z,19.56
2022-10-18T12:12:53.955Z,19.04
2022-10-18T12:13:33.460Z,19.50
2022-10-18T12:14:16.790Z,19.29
2022-10-18T12:14:53.517Z,19.69
2022-10-18T12:15:27.857Z,19.17
2022-10-18T12:16:05.042Z,19.13
2022-10-18T12:16:51.015Z,19.35
2022-10-18T12:17:47.512Z,19.84
2022-10-18T12:18:26.013Z,19.53
2022-10-18T12:19:04.226Z,19.30
2022-10-18T12:19:36.797Z,19.25
2022-10-18T12:20:17.404Z,19.50
2022-10-18T12:20:58.279Z,19.30
2022-10-18T12:21:34.445Z,19.44
2022-10-18T12:22:17.345Z,19.49
2022-10-18T12:22:56.687Z,19.47
2022-10-18T12:23:40.969Z,19.50
2022-10-18T12:24:18.837Z,19.73
2022-10-18T12:24:53.494Z,19.55
2022-10-18T12:25:26.220Z,19.86
2022-10-18T12:26:02.652Z,19.81
2022-10-18T12:26:38.482Z,19.73
2022-10-18T12:27:14.859Z,19.88
2022-10-18T12:27:57.318Z,19.80
2022-10-18T12:28:41.625Z,19.66
2022-10-18T12:29:23.089Z,19.83
2022-10-18T12:30:02.839Z,20.01
2022-10-18T12:30:45.082Z,19.92
2022-10-18T12:31:22.974Z,19.96
2022-10-18T12:32:02.048Z,19.41
2022-10-18T12:32:37.503Z,19.82
2022-10-18T12:33:27.866Z,18.89
2022-10-18T12:34:06.302Z,19.26
2022-10-18T12:34:46.540Z,19.27
2022-10-18T12:35:21.008Z,19.36
2022-10-18T12:36:05.979Z,19.60
2022-10-18T12:36:55.163Z,19.18
2022-10-18T12:37:46.930Z,19.58
2022-10-18T12:38:28.151Z,19.14
2022-10-18T12:39:03.542Z,19.32
2022-10-18T12:39:43.662Z,19.55
2022-10-18T12:40:28.619Z,18.66
2022-10-18T12:41:01.661Z,19.28
2022-10-18T12:41:36.139Z,18.95
2022-10-18T12:42:22.284Z,19.26
2022-10-18T12:42:54.571Z,19.29
2022-10-18T12:43:36.513Z,19.33
2022-10-18T12:44:24.761Z,19.00
2022-10-18T12:45:05.576Z,19.17
2022-10-18T12:45:50.041Z,18.92
2022-10-18T12:46:25.227Z,19.42
2022-10-18T12:46:59.913Z,19.38
2022-10-18T12:47:35.720Z,18.71
2022-10-18T12:48:08.943Z,18.87
2022-10-18T12:48:47.081Z,18.84
2022-10-18T12:49:24.381Z,18.87
2022-10-18T12:49:58.146Z,18.68
2022-10-18T12:50:37.555Z,19.29
2022-10-18T12:51:17.811Z,19.19
2022-10-18T12:51:54.796Z,19.20
2022-10-18T12:52:29.431Z,18.92
2022-10-18T12:53:10.501Z,18.90
2022-10-18T12:53:45.288Z,18.74
2022-10-18T12:54:21.986Z,19.18
2022-10-18T12:55:23.291Z,18.85
2022-10-18T12:56:19.888Z,18.86
2022-10-18T12:56:54.042Z,18.90
2022-10-18T12:58:05.414Z,19.05
2022-10-18T12:58:37.515Z,18.75
2022-10-18T12:59:43.304Z,19.09
2022-10-18T13:00:47.921Z,18.45
2022-10-18T13:01:20.103Z,18.85
2022-10-18T13:02:22.163Z,18.57
2022-10-18T13:03:39.112Z,19.30
2022-10-18T13:04:38.395Z,19.09
2022-10-18T13:05:55.288Z,18.76
2022-10-18T13:07:08.503Z,19.21
2022-10-18T13:07:43.473Z,19.04
2022-10-18T13:08:42.129Z,19.19
2022-10-18T13:09:21.801Z,19.18
2022-10-18T13:10:35.299Z,19.46
2022-10-18T13:11:32.948Z,19.84
2022-10-18T13:12:46.486Z,19.08
2022-10-18T13:13:48.007Z,18.48
2022-10-18T13:14:59.216Z,19.56
2022-10-18T13:15:44.537Z,19.07
2022-10-18T13:16:39.785Z,18.99
2022-10-18T13:17:24.911Z,19.17
2022-10-18T13:18:06.402Z,19.37
2022-10-18T13:18:50.674Z,19.37
2022-10-18T13:19:34.624Z,19.20
2022-10-18T13:20:25.987Z,18.86
2022-10-18T13:21:15.392Z,19.37
2022-10-18T13:21:55.823Z,19.14
2022-10-18T13:22:46.413Z,19.25
2022-10-18T13:23:38.266Z,18.88
2022-10-18T13:24:24.453Z,19.33
2022-10-18T13:25:04.463Z,19.35
2022-10-18T13:25:52.100Z,19.07
2022-10-18T13:26:34.419Z,18.92
2022-10-18T13:27:42.414Z,19.25
2022-10-18T13:28:27.554Z,19.17
2022-10-18T13:29:10.351Z,19.42
2022-10-18T13:29:57.021Z,19.19
2022-10-18T13:30:50.724Z,19.48
2022-10-18T13:31:28.972Z,19.33
2022-10-18T13:32:07.778Z,19.46
2022-10-18T13:32:53.189Z,19.59
2022-10-18T13:33:32.791Z,19.42
2022-10-18T13:34:26.730Z,19.51
2022-10-18T13:34:58.963Z,20.02
2022-10-18T13:35:54.898Z,19.71
2022-10-18T13:36:34.622Z,19.97
2022-10-18T13:37:20.858Z,19.51
2022-10-18T13:38:01.286Z,19.79
2022-10-18T13:38:42.764Z,20.05
2022-10-18T13:39:23.016Z,19.96
2022-10-18T13:40:22.962Z,20.10
2022-10-18T13:41:04.335Z,20.34
2022-10-18T13:42:06.222Z,20.27
2022-10-18T13:42:40.916Z,20.98
2022-10-18T13:43:43.010Z,20.69
2022-10-18T13:44:37.842Z,21.14
2022-10-18T13:45:40.074Z,20.79
2022-10-18T13:46:14.766Z,20.82
2022-10-18T13:47:19.824Z,20.54
2022-10-18T13:47:54.541Z,21.06